createdAt,value
2023-02-14T00:00:55.095Z,4.60
2023-02-14T00:03:22.848Z,4.59
2023-02-14T00:05:50.623Z,4.58
2023-02-14T00:08:19.686Z,4.56
2023-02-14T00:10:47.454Z,4.54
2023-02-14T00:13:15.171Z,4.52
2023-02-14T00:15:41.912Z,4.50
2023-02-14T00:18:09.638Z,4.49
2023-02-14T00:20:37.519Z,4.46
2023-02-14T00:23:05.308Z,4.46
2023-02-14T00:25:35.984Z,4.43
2023-02-14T00:28:03.781Z,4.41
2023-02-14T00:30:31.655Z,4.39
2023-02-14T00:32:59.406Z,4.36
2023-02-14T00:35:27.182Z,4.33
2023-02-14T00:37:56.066Z,4.31
2023-02-14T00:40:23.853Z,4.27
2023-02-14T00:42:52.990Z,4.24
2023-02-14T00:45:20.744Z,4.20
2023-02-14T00:47:48.494Z,4.17
2023-02-14T00:50:16.297Z,4.14
2023-02-14T00:52:44.536Z,4.11
2023-02-14T00:55:12.271Z,4.11
2023-02-14T00:57:39.991Z,4.11
2023-02-14T01:00:10.649Z,4.10
2023-02-14T01:02:38.391Z,4.08
2023-02-14T01:05:07.105Z,4.04
2023-02-14T01:07:34.871Z,4.00
2023-02-14T01:10:02.610Z,3.98
2023-02-14T01:12:30.326Z,3.97
2023-02-14T01:14:58.043Z,3.97
2023-02-14T01:17:27.252Z,3.96
2023-02-14T01:19:55.567Z,3.93
2023-02-14T01:22:23.305Z,3.92
2023-02-14T01:24:51.163Z,3.92
2023-02-14T01:27:18.905Z,3.91
2023-02-14T01:29:46.699Z,3.89
2023-02-14T01:32:14.706Z,3.87
2023-02-14T01:34:43.805Z,3.85
2023-02-14T01:37:11.546Z,3.85
2023-02-14T01:39:39.322Z,3.85
2023-02-14T01:42:07.252Z,3.84
2023-02-14T01:44:58.224Z,3.84
2023-02-14T01:47:27.731Z,3.83
2023-02-14T01:50:01.696Z,3.81
2023-02-14T01:52:34.687Z,3.79
2023-02-14T01:55:06.636Z,3.76
2023-02-14T01:57:38.320Z,3.72
2023-02-14T02:00:25.694Z,3.67
2023-02-14T02:02:54.359Z,3.62
2023-02-14T02:05:23.880Z,3.60
2023-02-14T02:07:52.735Z,3.59
2023-02-14T02:10:20.700Z,3.57
2023-02-14T02:12:50.362Z,3.54
2023-02-14T02:15:18.137Z,3.51
2023-02-14T02:17:54.282Z,3.46
2023-02-14T02:20:52.326Z,3.43
2023-02-14T02:23:54.493Z,3.41
2023-02-14T02:27:09.689Z,3.41
2023-02-14T02:30:19.126Z,3.39
2023-02-14T02:33:25.542Z,3.36
2023-02-14T02:36:28.951Z,3.34
2023-02-14T02:39:11.251Z,3.37
2023-02-14T02:41:54.982Z,3.37
2023-02-14T02:44:28.888Z,3.38
2023-02-14T02:47:03.788Z,3.40
2023-02-14T02:49:56.345Z,3.40
2023-02-14T02:52:49.646Z,3.37
2023-02-14T02:55:24.500Z,3.38
2023-02-14T02:57:53.753Z,3.39
2023-02-14T03:00:23.321Z,3.39
2023-02-14T03:03:13.316Z,3.37
2023-02-14T03:05:41.951Z,3.36
2023-02-14T03:08:09.722Z,3.35
2023-02-14T03:10:40.738Z,3.33
2023-02-14T03:13:31.986Z,3.29
2023-02-14T03:16:21.920Z,3.27
2023-02-14T03:19:42.803Z,3.24
2023-02-14T03:22:20.862Z,3.22
2023-02-14T03:24:57.583Z,3.19
2023-02-14T03:27:29.524Z,3.16
2023-02-14T03:30:04.363Z,3.15
2023-02-14T03:32:40.760Z,3.14
2023-02-14T03:35:16.060Z,3.14
2023-02-14T03:37:50.731Z,3.14
2023-02-14T03:40:23.405Z,3.13
2023-02-14T03:42:55.511Z,3.12
2023-02-14T03:45:28.784Z,3.12
2023-02-14T03:48:00.092Z,3.12
2023-02-14T03:50:29.518Z,3.11
2023-02-14T03:52:59.398Z,3.10
2023-02-14T03:55:33.741Z,3.09
2023-02-14T03:58:09.771Z,3.08
2023-02-14T04:00:41.221Z,3.09
2023-02-14T04:03:13.401Z,3.06
2023-02-14T04:05:46.660Z,3.04
2023-02-14T04:08:22.126Z,3.02
2023-02-14T04:10:50.059Z,3.00
2023-02-14T04:13:19.170Z,3.00
2023-02-14T04:15:46.891Z,2.98
2023-02-14T04:18:32.135Z,2.96
2023-02-14T04:21:00.173Z,2.96
2023-02-14T04:23:28.170Z,2.95
2023-02-14T04:25:55.915Z,2.92
2023-02-14T04:28:25.114Z,2.87
2023-02-14T04:30:52.923Z,2.85
2023-02-14T04:33:20.682Z,2.82
2023-02-14T04:35:49.274Z,2.82
2023-02-14T04:38:16.976Z,2.80
2023-02-14T04:40:44.659Z,2.79
2023-02-14T04:43:12.435Z,2.80
2023-02-14T04:45:41.571Z,2.80
2023-02-14T04:48:09.348Z,2.80
2023-02-14T04:50:37.078Z,2.81
2023-02-14T04:53:04.786Z,2.80
2023-02-14T04:55:32.650Z,2.79
2023-02-14T04:58:00.374Z,2.76
2023-02-14T05:00:28.104Z,2.76
2023-02-14T05:02:57.244Z,2.75
2023-02-14T05:05:24.971Z,2.73
2023-02-14T05:07:52.727Z,2.72
2023-02-14T05:10:20.449Z,2.71
2023-02-14T05:12:48.167Z,2.68
2023-02-14T05:15:16.154Z,2.69
2023-02-14T05:17:43.886Z,2.68
2023-02-14T05:20:13.391Z,2.67
2023-02-14T05:22:41.152Z,2.66
2023-02-14T05:25:09.258Z,2.62
2023-02-14T05:27:36.985Z,2.59
2023-02-14T05:30:05.271Z,2.56
2023-02-14T05:32:33.083Z,2.54
2023-02-14T05:35:01.299Z,2.52
2023-02-14T05:37:30.598Z,2.47
2023-02-14T05:39:58.371Z,2.44
2023-02-14T05:42:28.015Z,2.41
2023-02-14T05:44:55.779Z,2.39
2023-02-14T05:47:23.574Z,2.35
2023-02-14T05:49:51.312Z,2.32
2023-02-14T05:52:19.076Z,2.28
2023-02-14T05:54:48.172Z,2.25
2023-02-14T05:57:15.894Z,2.23
2023-02-14T05:59:43.650Z,2.21
2023-02-14T06:02:11.897Z,2.19
2023-02-14T06:04:39.718Z,2.18
2023-02-14T06:07:07.477Z,2.16
2023-02-14T06:09:35.802Z,2.14
2023-02-14T06:12:05.292Z,2.14
2023-02-14T06:14:33.054Z,2.10
2023-02-14T06:17:00.969Z,2.12
2023-02-14T06:19:28.791Z,2.10
2023-02-14T06:21:56.546Z,2.09
2023-02-14T06:24:24.559Z,2.08
2023-02-14T06:26:52.318Z,2.05
2023-02-14T06:29:21.456Z,1.99
2023-02-14T06:31:49.333Z,1.98
2023-02-14T06:34:17.208Z,1.96
2023-02-14T06:36:45.015Z,1.95
2023-02-14T06:39:12.816Z,1.93
2023-02-14T06:41:40.696Z,1.90
2023-02-14T06:44:10.377Z,1.89
2023-02-14T06:46:39.505Z,1.87
2023-02-14T06:49:07.268Z,1.86
2023-02-14T06:51:35.028Z,1.85
2023-02-14T06:54:02.940Z,1.84
2023-02-14T06:56:30.703Z,1.82
2023-02-14T06:58:58.423Z,1.77
2023-02-14T07:01:26.171Z,1.74
2023-02-14T07:03:55.296Z,1.70
2023-02-14T07:06:23.088Z,1.67
2023-02-14T07:08:50.970Z,1.65
2023-02-14T07:11:18.753Z,1.62
2023-02-14T07:13:48.532Z,1.62
2023-02-14T07:16:17.240Z,1.59
2023-02-14T07:18:45.002Z,1.62
2023-02-14T07:21:14.102Z,1.63
2023-02-14T07:23:41.929Z,1.63
2023-02-14T07:26:09.820Z,1.64
2023-02-14T07:28:37.587Z,1.66
2023-02-14T07:31:05.698Z,1.66
2023-02-14T07:33:33.526Z,1.67
2023-02-14T07:36:06.192Z,1.67
2023-02-14T07:38:35.597Z,1.68
2023-02-14T07:41:04.063Z,1.67
2023-02-14T07:43:34.416Z,1.67
2023-02-14T07:46:02.785Z,1.68
2023-02-14T07:48:33.198Z,1.71
2023-02-14T07:51:02.414Z,1.72
2023-02-14T07:53:30.587Z,1.74
2023-02-14T07:55:59.720Z,1.76
2023-02-14T07:58:27.497Z,1.81
2023-02-14T08:00:55.969Z,1.82
2023-02-14T08:03:23.778Z,1.86
2023-02-14T08:05:57.213Z,1.89
2023-02-14T08:08:27.365Z,1.92
2023-02-14T08:10:55.404Z,1.96
2023-02-14T08:13:24.640Z,2.01
2023-02-14T08:16:09.542Z,2.05
2023-02-14T08:18:39.258Z,2.07
2023-02-14T08:21:09.051Z,2.13
2023-02-14T08:23:37.774Z,2.18
2023-02-14T08:26:05.814Z,2.22
2023-02-14T08:28:35.243Z,2.24
2023-02-14T08:31:04.554Z,2.32
2023-02-14T08:33:32.511Z,2.37
2023-02-14T08:36:00.292Z,2.44
2023-02-14T08:38:28.106Z,2.49
2023-02-14T08:40:56.018Z,2.56
2023-02-14T08:43:24.015Z,2.65
2023-02-14T08:45:54.880Z,2.73
2023-02-14T08:48:23.568Z,2.81
2023-02-14T08:50:51.485Z,2.89
2023-02-14T08:53:19.280Z,2.98
2023-02-14T08:55:47.225Z,3.05
2023-02-14T08:58:15.461Z,3.15
2023-02-14T09:00:43.209Z,3.25
2023-02-14T09:03:12.303Z,3.35
2023-02-14T09:05:40.488Z,3.44
2023-02-14T09:08:08.276Z,3.55
2023-02-14T09:10:36.259Z,3.62
2023-02-14T09:13:04.017Z,3.72
2023-02-14T09:15:31.963Z,3.78
2023-02-14T09:17:59.681Z,3.89
2023-02-14T09:20:28.945Z,3.98
2023-02-14T09:22:56.970Z,4.07
2023-02-14T09:25:24.681Z,4.17
2023-02-14T09:27:52.394Z,4.25
2023-02-14T09:30:20.236Z,4.37
2023-02-14T09:32:48.006Z,4.44
2023-02-14T09:35:16.675Z,4.54
2023-02-14T09:37:45.789Z,4.65
2023-02-14T09:40:16.463Z,4.76
2023-02-14T09:42:54.007Z,4.84
2023-02-14T09:45:25.282Z,4.92
2023-02-14T09:47:58.249Z,5.02
2023-02-14T09:50:31.603Z,5.12
2023-02-14T09:53:05.842Z,5.22
2023-02-14T09:55:39.731Z,5.28
2023-02-14T09:58:12.884Z,5.38
2023-02-14T10:00:46.581Z,5.50
2023-02-14T10:03:44.080Z,5.62
2023-02-14T10:06:24.301Z,5.73
2023-02-14T10:09:04.938Z,5.82
2023-02-14T10:11:33.052Z,5.89
2023-02-14T10:14:05.155Z,6.02
2023-02-14T10:16:38.398Z,6.11
2023-02-14T10:19:16.687Z,6.22
2023-02-14T10:21:49.855Z,6.35
2023-02-14T10:24:22.759Z,6.45
2023-02-14T10:26:51.813Z,6.57
2023-02-14T10:29:20.735Z,6.67
2023-02-14T10:31:55.800Z,6.77
2023-02-14T10:34:32.071Z,6.86
2023-02-14T10:37:19.982Z,6.99
2023-02-14T10:40:09.553Z,7.11
2023-02-14T10:42:47.778Z,7.25
2023-02-14T10:45:23.936Z,7.34
2023-02-14T10:47:59.830Z,7.42
2023-02-14T10:50:34.587Z,7.53
2023-02-14T10:53:15.147Z,7.65
2023-02-14T10:55:52.064Z,7.79
2023-02-14T10:58:23.890Z,7.92
2023-02-14T11:00:59.390Z,8.02
2023-02-14T11:03:29.400Z,8.11
2023-02-14T11:05:57.336Z,8.22
2023-02-14T11:08:28.354Z,8.33
2023-02-14T11:11:06.728Z,8.47
2023-02-14T11:13:40.180Z,8.54
2023-02-14T11:16:11.553Z,8.60
2023-02-14T11:18:41.724Z,8.67
2023-02-14T11:21:11.954Z,8.77
2023-02-14T11:23:42.312Z,8.85
2023-02-14T11:26:17.648Z,8.95
2023-02-14T11:28:53.874Z,9.03
2023-02-14T11:31:33.336Z,9.15
2023-02-14T11:34:04.785Z,9.26
2023-02-14T11:36:40.065Z,9.35
2023-02-14T11:39:23.207Z,9.47
2023-02-14T11:41:55.512Z,9.56
2023-02-14T11:44:26.161Z,9.64
2023-02-14T11:46:56.849Z,9.72
2023-02-14T11:49:31.262Z,9.80
2023-02-14T11:52:01.141Z,9.87
2023-02-14T11:54:34.631Z,9.96
2023-02-14T11:57:13.333Z,10.05
2023-02-14T11:59:43.889Z,10.15
2023-02-14T12:02:32.586Z,10.24
2023-02-14T12:05:02.934Z,10.30
2023-02-14T12:07:33.296Z,10.37
2023-02-14T12:10:20.696Z,10.45
2023-02-14T12:12:56.484Z,10.51
2023-02-14T12:15:28.258Z,10.54
2023-02-14T12:18:04.418Z,10.62
2023-02-14T12:20:41.829Z,10.70
2023-02-14T12:23:17.896Z,10.76
2023-02-14T12:25:52.355Z,10.81
2023-02-14T12:28:30.785Z,10.85
2023-02-14T12:30:59.368Z,10.90
2023-02-14T12:33:27.381Z,10.97
2023-02-14T12:36:04.592Z,10.99
2023-02-14T12:38:45.243Z,11.02
2023-02-14T12:41:30.294Z,11.06
2023-02-14T12:44:08.456Z,11.12
2023-02-14T12:46:51.489Z,11.16
2023-02-14T12:49:40.374Z,11.19
2023-02-14T12:52:40.461Z,11.22
2023-02-14T12:55:32.777Z,11.25
2023-02-14T12:58:06.748Z,11.29
2023-02-14T13:00:45.936Z,11.36
2023-02-14T13:03:39.314Z,11.42
2023-02-14T13:06:15.767Z,11.49
2023-02-14T13:09:01.454Z,11.51
2023-02-14T13:11:42.518Z,11.50
2023-02-14T13:14:28.502Z,11.49
2023-02-14T13:17:05.524Z,11.50
2023-02-14T13:19:45.647Z,11.53
2023-02-14T13:22:20.286Z,11.53
2023-02-14T13:24:50.431Z,11.53
2023-02-14T13:27:22.608Z,11.54
2023-02-14T13:29:54.794Z,11.53
2023-02-14T13:32:29.688Z,11.55
2023-02-14T13:34:58.852Z,11.54
2023-02-14T13:37:28.221Z,11.54
2023-02-14T13:39:59.516Z,11.56
2023-02-14T13:42:53.524Z,11.55
2023-02-14T13:46:03.720Z,11.54
2023-02-14T13:48:33.052Z,11.51
2023-02-14T13:51:03.291Z,11.48
2023-02-14T13:53:38.007Z,11.45
2023-02-14T13:56:27.329Z,11.41
2023-02-14T13:58:59.826Z,11.34
2023-02-14T14:01:36.849Z,11.29
2023-02-14T14:04:27.639Z,11.22
2023-02-14T14:07:19.364Z,11.20
2023-02-14T14:09:55.311Z,11.18
2023-02-14T14:12:39.467Z,11.16
2023-02-14T14:15:13.179Z,11.11
2023-02-14T14:17:44.501Z,11.10
2023-02-14T14:20:45.270Z,11.07
2023-02-14T14:23:40.282Z,11.02
2023-02-14T14:26:34.770Z,10.99
2023-02-14T14:29:02.583Z,10.94
2023-02-14T14:31:31.473Z,10.93
2023-02-14T14:34:00.667Z,10.88
2023-02-14T14:36:29.826Z,10.87
2023-02-14T14:38:57.594Z,10.87
2023-02-14T14:41:31.277Z,10.84
2023-02-14T14:44:00.381Z,10.82
2023-02-14T14:46:28.546Z,10.79
2023-02-14T14:48:57.952Z,10.78
2023-02-14T14:51:31.605Z,10.75
2023-02-14T14:54:03.898Z,10.74
2023-02-14T14:56:34.963Z,10.74
2023-02-14T14:59:19.380Z,10.73
2023-02-14T15:01:48.818Z,10.71
2023-02-14T15:04:20.690Z,10.70
2023-02-14T15:06:49.766Z,10.69
2023-02-14T15:09:23.737Z,10.69
2023-02-14T15:12:11.969Z,10.67
2023-02-14T15:14:43.588Z,10.68
2023-02-14T15:17:19.299Z,10.68
2023-02-14T15:19:50.927Z,10.68
2023-02-14T15:22:21.700Z,10.69
2023-02-14T15:24:52.161Z,10.69
2023-02-14T15:27:23.311Z,10.67
2023-02-14T15:29:56.424Z,10.67
2023-02-14T15:32:25.476Z,10.67
2023-02-14T15:34:54.264Z,10.68
2023-02-14T15:37:23.142Z,10.66
2023-02-14T15:39:55.755Z,10.66
2023-02-14T15:42:27.721Z,10.65
2023-02-14T15:45:22.336Z,10.63
2023-02-14T15:47:53.096Z,10.61
2023-02-14T15:50:24.327Z,10.59
2023-02-14T15:52:55.817Z,10.58
2023-02-14T15:55:27.319Z,10.57
2023-02-14T15:57:57.924Z,10.57
2023-02-14T16:00:26.771Z,10.54
2023-02-14T16:02:57.458Z,10.52
2023-02-14T16:05:27.215Z,10.54
2023-02-14T16:08:00.043Z,10.50
2023-02-14T16:10:30.686Z,10.48
2023-02-14T16:13:03.649Z,10.47
2023-02-14T16:15:33.793Z,10.46
2023-02-14T16:18:06.918Z,10.44
2023-02-14T16:20:41.567Z,10.40
2023-02-14T16:23:17.595Z,10.38
2023-02-14T16:25:46.935Z,10.37
2023-02-14T16:28:14.987Z,10.35
2023-02-14T16:30:44.021Z,10.34
2023-02-14T16:33:17.603Z,10.31
2023-02-14T16:35:46.512Z,10.27
2023-02-14T16:38:16.447Z,10.23
2023-02-14T16:40:47.754Z,10.21
2023-02-14T16:43:16.301Z,10.18
2023-02-14T16:45:44.831Z,10.14
2023-02-14T16:48:13.109Z,10.09
2023-02-14T16:50:42.297Z,10.05
2023-02-14T16:53:19.030Z,10.02
2023-02-14T16:55:48.174Z,9.96
2023-02-14T16:58:16.006Z,9.90
2023-02-14T17:00:43.713Z,9.84
2023-02-14T17:03:14.300Z,9.79
2023-02-14T17:05:42.156Z,9.72
2023-02-14T17:08:13.276Z,9.64
2023-02-14T17:10:43.525Z,9.58
2023-02-14T17:13:13.283Z,9.53
2023-02-14T17:15:41.529Z,9.48
2023-02-14T17:18:12.738Z,9.41
2023-02-14T17:20:40.918Z,9.34
2023-02-14T17:23:08.946Z,9.28
2023-02-14T17:25:36.719Z,9.21
2023-02-14T17:28:04.574Z,9.15
2023-02-14T17:30:33.857Z,9.09
2023-02-14T17:33:01.647Z,9.04
2023-02-14T17:35:30.000Z,8.97
2023-02-14T17:37:57.818Z,8.92
2023-02-14T17:40:25.661Z,8.85
2023-02-14T17:42:53.433Z,8.78
2023-02-14T17:45:22.355Z,8.70
2023-02-14T17:47:51.564Z,8.64
2023-02-14T17:50:19.494Z,8.59
2023-02-14T17:52:47.364Z,8.55
2023-02-14T17:55:15.782Z,8.53
2023-02-14T17:57:43.667Z,8.46
2023-02-14T18:00:14.183Z,8.40
2023-02-14T18:02:42.056Z,8.35
2023-02-14T18:05:12.272Z,8.33
2023-02-14T18:07:42.968Z,8.29
2023-02-14T18:10:11.450Z,8.25
2023-02-14T18:12:39.564Z,8.23
2023-02-14T18:15:07.764Z,8.18
2023-02-14T18:17:35.583Z,8.15
2023-02-14T18:20:03.398Z,8.08
2023-02-14T18:22:33.034Z,8.02
2023-02-14T18:25:00.806Z,7.94
2023-02-14T18:27:28.674Z,7.87
2023-02-14T18:29:56.539Z,7.81
2023-02-14T18:32:24.479Z,7.81
2023-02-14T18:34:52.477Z,7.79
2023-02-14T18:37:20.220Z,7.74
2023-02-14T18:39:49.360Z,7.71
2023-02-14T18:42:17.123Z,7.66
2023-02-14T18:44:44.859Z,7.62
2023-02-14T18:47:12.660Z,7.57
2023-02-14T18:49:40.415Z,7.52
2023-02-14T18:52:08.309Z,7.47
2023-02-14T18:54:36.413Z,7.43
2023-02-14T18:57:05.555Z,7.39
2023-02-14T18:59:33.351Z,7.33
2023-02-14T19:02:01.258Z,7.28
2023-02-14T19:04:29.068Z,7.25
2023-02-14T19:06:56.831Z,7.20
2023-02-14T19:09:27.520Z,7.17
2023-02-14T19:11:59.992Z,7.12
2023-02-14T19:14:29.171Z,7.06
2023-02-14T19:16:56.949Z,7.01
2023-02-14T19:19:24.772Z,6.97
2023-02-14T19:21:53.144Z,6.92
2023-02-14T19:24:21.797Z,6.87
2023-02-14T19:26:49.723Z,6.83
2023-02-14T19:29:19.166Z,6.78
2023-02-14T19:31:50.271Z,6.72
2023-02-14T19:34:20.444Z,6.69
2023-02-14T19:36:49.278Z,6.65
2023-02-14T19:39:17.284Z,6.57
2023-02-14T19:41:45.170Z,6.52
2023-02-14T19:44:14.734Z,6.48
2023-02-14T19:46:43.770Z,6.43
2023-02-14T19:49:16.895Z,6.39
2023-02-14T19:51:45.479Z,6.34
2023-02-14T19:54:15.263Z,6.31
2023-02-14T19:56:45.199Z,6.25
2023-02-14T19:59:18.098Z,6.21
2023-02-14T20:01:47.836Z,6.16
2023-02-14T20:04:19.074Z,6.14
2023-02-14T20:06:47.370Z,6.09
2023-02-14T20:09:15.725Z,6.06
2023-02-14T20:11:50.076Z,6.03
2023-02-14T20:14:19.458Z,5.98
2023-02-14T20:16:48.409Z,5.97
2023-02-14T20:19:19.433Z,5.93
2023-02-14T20:21:48.339Z,5.89
2023-02-14T20:24:17.990Z,5.86
2023-02-14T20:26:47.400Z,5.81
2023-02-14T20:29:15.915Z,5.76
2023-02-14T20:31:48.534Z,5.70
2023-02-14T20:34:18.881Z,5.64
2023-02-14T20:36:49.579Z,5.59
2023-02-14T20:39:17.420Z,5.55
2023-02-14T20:41:49.711Z,5.52
2023-02-14T20:44:19.884Z,5.49
2023-02-14T20:46:47.903Z,5.44
2023-02-14T20:49:18.572Z,5.42
2023-02-14T20:51:49.620Z,5.37
2023-02-14T20:54:18.141Z,5.34
2023-02-14T20:56:46.031Z,5.33
2023-02-14T20:59:14.142Z,5.28
2023-02-14T21:01:42.005Z,5.25
2023-02-14T21:04:09.798Z,5.20
2023-02-14T21:06:40.159Z,5.17
2023-02-14T21:09:08.614Z,5.12
2023-02-14T21:11:36.366Z,5.10
2023-02-14T21:14:04.183Z,5.09
2023-02-14T21:16:34.801Z,5.08
2023-02-14T21:19:02.525Z,5.04
2023-02-14T21:21:34.707Z,5.01
2023-02-14T21:24:06.426Z,4.98
2023-02-14T21:26:34.719Z,4.95
2023-02-14T21:29:02.853Z,4.92
2023-02-14T21:31:34.068Z,4.89
2023-02-14T21:34:03.334Z,4.85
2023-02-14T21:36:35.482Z,4.81
2023-02-14T21:39:06.038Z,4.76
2023-02-14T21:41:34.788Z,4.75
2023-02-14T21:44:04.187Z,4.71
2023-02-14T21:46:35.697Z,4.66
2023-02-14T21:49:22.961Z,4.63
2023-02-14T21:51:50.705Z,4.59
2023-02-14T21:54:19.882Z,4.55
2023-02-14T21:56:49.256Z,4.53
2023-02-14T21:59:17.052Z,4.49
2023-02-14T22:01:44.836Z,4.44
2023-02-14T22:04:13.725Z,4.39
2023-02-14T22:06:43.303Z,4.32
2023-02-14T22:09:14.106Z,4.31
2023-02-14T22:11:43.372Z,4.28
2023-02-14T22:14:11.297Z,4.27
2023-02-14T22:16:39.099Z,4.24
2023-02-14T22:19:07.387Z,4.20
2023-02-14T22:21:36.250Z,4.15
2023-02-14T22:24:04.651Z,4.13
2023-02-14T22:26:33.817Z,4.09
2023-02-14T22:29:03.999Z,4.08
2023-02-14T22:31:34.895Z,4.05
2023-02-14T22:34:02.795Z,4.04
2023-02-14T22:36:30.694Z,4.03
2023-02-14T22:38:58.482Z,3.98
2023-02-14T22:41:26.698Z,3.97
2023-02-14T22:43:55.163Z,3.94
2023-02-14T22:46:26.592Z,3.91
2023-02-14T22:48:55.331Z,3.87
2023-02-14T22:51:25.874Z,3.84
2023-02-14T22:53:55.561Z,3.82
2023-02-14T22:56:29.872Z,3.79
2023-02-14T22:58:58.963Z,3.78
2023-02-14T23:01:28.449Z,3.77
2023-02-14T23:03:59.016Z,3.75
2023-02-14T23:06:28.566Z,3.74
2023-02-14T23:08:57.408Z,3.71
2023-02-14T23:11:27.580Z,3.69
2023-02-14T23:14:13.075Z,3.65
2023-02-14T23:17:00.226Z,3.61
2023-02-14T23:19:48.027Z,3.58
2023-02-14T23:22:19.521Z,3.56
2023-02-14T23:24:47.745Z,3.52
2023-02-14T23:27:16.598Z,3.50
2023-02-14T23:29:44.986Z,3.48
2023-02-14T23:32:14.237Z,3.46
2023-02-14T23:34:44.885Z,3.44
2023-02-14T23:37:13.780Z,3.40
2023-02-14T23:39:41.616Z,3.37
2023-02-14T23:42:12.172Z,3.35
2023-02-14T23:44:40.003Z,3.31
2023-02-14T23:47:10.107Z,3.28
2023-02-14T23:49:40.694Z,3.26
2023-02-14T23:52:10.970Z,3.24
2023-02-14T23:54:39.223Z,3.23
2023-02-14T23:57:08.414Z,3.21
2023-02-14T23:59:36.442Z,3.18
